Time;durP1;ratioP1;P1;durP2;ratioP2;P2;SDS_P1;SDS_P2;PMS_P1;PMS_P2;Temp;Humidity;BMP_temperature;BMP_pressure;BME280_temperature;BME280_humidity;BME280_pressure;Samples;Min_cycle;Max_cycle;Signal;HPM_P1;HPM_P2
2024/01/05 00:00:39;;;;;;;3.25;1.20;;;;;;;;;;4999167;28;20046;-60
2024/01/05 00:03:05;;;;;;;5.18;1.10;;;;;;;;;;5005809;28;20034;-56
2024/01/05 00:05:31;;;;;;;2.30;1.02;;;;;;;;;;5000919;28;20544;-57
2024/01/05 00:07:57;;;;;;;4.10;1.20;;;;;;;;;;5003081;28;20050;-58
2024/01/05 00:10:23;;;;;;;4.65;1.02;;;;;;;;;;4998253;28;20524;-58
2024/01/05 00:12:50;;;;;;;9.15;1.50;;;;;;;;;;5000343;28;20062;-58
2024/01/05 00:15:17;;;;;;;8.05;1.65;;;;;;;;;;5001651;28;20065;-57
2024/01/05 00:17:46;;;;;;;6.45;1.88;;;;;;;;;;4998083;28;20054;-57
2024/01/05 00:20:13;;;;;;;7.28;1.20;;;;;;;;;;5000396;28;20033;-57
2024/01/05 00:22:39;;;;;;;2.45;1.15;;;;;;;;;;5002288;28;20053;-58
2024/01/05 00:25:05;;;;;;;4.57;1.20;;;;;;;;;;4994263;28;20054;-58
2024/01/05 00:27:31;;;;;;;5.82;1.10;;;;;;;;;;5001740;28;20050;-59
2024/01/05 00:29:58;;;;;;;4.00;1.33;;;;;;;;;;5002983;28;20033;-58
2024/01/05 00:32:24;;;;;;;7.75;1.10;;;;;;;;;;4995797;28;20034;-59
2024/01/05 00:34:50;;;;;;;4.45;1.00;;;;;;;;;;5000810;28;20049;-59
2024/01/05 00:37:17;;;;;;;4.43;1.17;;;;;;;;;;5006647;28;20038;-59
2024/01/05 00:39:43;;;;;;;5.43;1.10;;;;;;;;;;5001888;28;20053;-57
2024/01/05 00:42:10;;;;;;;5.18;1.25;;;;;;;;;;5001769;28;20046;-59
2024/01/05 00:44:36;;;;;;;2.10;1.00;;;;;;;;;;5007963;28;20049;-58
2024/01/05 00:47:02;;;;;;;10.63;1.30;;;;;;;;;;5002783;28;20057;-57
2024/01/05 00:49:28;;;;;;;4.22;0.95;;;;;;;;;;5003214;28;20385;-57
2024/01/05 00:51:54;;;;;;;6.00;1.30;;;;;;;;;;5003921;28;20050;-59
2024/01/05 00:54:20;;;;;;;4.65;1.20;;;;;;;;;;5008235;28;20046;-59
2024/01/05 00:56:46;;;;;;;7.07;1.15;;;;;;;;;;5004216;28;20061;-58
2024/01/05 00:59:12;;;;;;;6.90;1.15;;;;;;;;;;5001880;28;20408;-58
2024/01/05 01:01:38;;;;;;;4.43;1.17;;;;;;;;;;5001917;28;20026;-58
2024/01/05 01:04:04;;;;;;;6.38;1.30;;;;;;;;;;5006070;28;20030;-56
2024/01/05 01:06:31;;;;;;;4.05;0.90;;;;;;;;;;5004032;28;20392;-56
2024/01/05 01:08:57;;;;;;;4.60;1.13;;;;;;;;;;5004291;28;20056;-57
2024/01/05 01:11:24;;;;;;;6.20;1.00;;;;;;;;;;5005262;28;20433;-56
2024/01/05 01:13:50;;;;;;;1.92;0.88;;;;;;;;;;5002877;28;20395;-56
2024/01/05 01:16:16;;;;;;;5.55;1.23;;;;;;;;;;5000996;28;20049;-54
2024/01/05 01:18:42;;;;;;;6.75;1.42;;;;;;;;;;4997706;28;20060;-57
2024/01/05 01:21:08;;;;;;;1.40;0.70;;;;;;;;;;5008636;28;20042;-55
2024/01/05 01:23:34;;;;;;;3.85;1.25;;;;;;;;;;5002514;28;20038;-55
2024/01/05 01:26:00;;;;;;;4.60;1.25;;;;;;;;;;5002148;28;20401;-55
2024/01/05 01:28:28;;;;;;;3.75;1.10;;;;;;;;;;5003873;28;20042;-56
2024/01/05 01:30:54;;;;;;;4.75;1.10;;;;;;;;;;5006500;28;20050;-55
2024/01/05 01:33:20;;;;;;;2.13;0.93;;;;;;;;;;5001807;28;20042;-55
2024/01/05 01:35:46;;;;;;;3.33;1.20;;;;;;;;;;5000481;28;20046;-56
2024/01/05 01:38:12;;;;;;;6.20;1.10;;;;;;;;;;5003470;28;20140;-57
2024/01/05 01:40:38;;;;;;;3.83;1.02;;;;;;;;;;5001430;28;20038;-59
2024/01/05 01:43:04;;;;;;;5.85;1.02;;;;;;;;;;5000858;28;20596;-57
2024/01/05 01:45:31;;;;;;;5.43;1.30;;;;;;;;;;5000498;28;20030;-55
2024/01/05 01:47:58;;;;;;;4.55;1.15;;;;;;;;;;5003996;28;20401;-57
2024/01/05 01:50:24;;;;;;;4.47;0.88;;;;;;;;;;5004565;28;20034;-57
2024/01/05 01:52:50;;;;;;;4.30;0.80;;;;;;;;;;5003493;28;20425;-56
2024/01/05 01:55:17;;;;;;;4.57;0.98;;;;;;;;;;5006990;28;20122;-57
2024/01/05 01:57:44;;;;;;;4.55;1.10;;;;;;;;;;5005099;28;20405;-56
2024/01/05 02:00:13;;;;;;;2.38;1.00;;;;;;;;;;4999070;28;20406;-57
2024/01/05 02:02:40;;;;;;;3.28;0.93;;;;;;;;;;5002507;28;20038;-57
2024/01/05 02:05:06;;;;;;;2.72;0.82;;;;;;;;;;5009719;28;20042;-57
2024/01/05 02:07:33;;;;;;;3.33;0.80;;;;;;;;;;5005108;28;20042;-56
2024/01/05 02:09:59;;;;;;;8.40;1.90;;;;;;;;;;5003369;28;20042;-57
2024/01/05 02:12:25;;;;;;;2.60;0.80;;;;;;;;;;5001027;28;20045;-55
2024/01/05 02:14:51;;;;;;;4.85;1.48;;;;;;;;;;5000220;28;20053;-56
2024/01/05 02:17:37;;;;;;;4.50;1.48;;;;;;;;;;4998559;28;20498;-54
2024/01/05 02:20:04;;;;;;;3.97;1.17;;;;;;;;;;5003115;28;20429;-57
2024/01/05 02:22:34;;;;;;;5.78;1.23;;;;;;;;;;5008807;28;20417;-57
2024/01/05 02:25:01;;;;;;;3.00;0.90;;;;;;;;;;4998372;28;20049;-57
2024/01/05 02:27:27;;;;;;;2.65;0.90;;;;;;;;;;5004514;28;20045;-55
2024/01/05 02:29:53;;;;;;;4.75;1.20;;;;;;;;;;5003045;28;20433;-58
2024/01/05 02:32:20;;;;;;;2.72;1.17;;;;;;;;;;5001878;28;20045;-57
2024/01/05 02:34:46;;;;;;;2.95;1.00;;;;;;;;;;5000809;28;20038;-57
2024/01/05 02:37:12;;;;;;;7.72;1.42;;;;;;;;;;5004694;28;20042;-57
2024/01/05 02:39:39;;;;;;;6.15;1.00;;;;;;;;;;4998855;28;20048;-57
2024/01/05 02:42:05;;;;;;;5.20;1.10;;;;;;;;;;4997393;28;20042;-57
2024/01/05 02:44:31;;;;;;;3.22;0.98;;;;;;;;;;4999776;28;20418;-55
2024/01/05 02:46:57;;;;;;;2.90;1.08;;;;;;;;;;5002775;28;20054;-57
2024/01/05 02:49:23;;;;;;;3.20;0.80;;;;;;;;;;5001409;28;20037;-57
2024/01/05 02:51:49;;;;;;;1.48;0.80;;;;;;;;;;4999272;28;20065;-57
2024/01/05 02:54:15;;;;;;;4.20;1.00;;;;;;;;;;5006546;28;20053;-58
2024/01/05 02:56:41;;;;;;;2.30;0.70;;;;;;;;;;5006145;28;20033;-57
2024/01/05 02:59:07;;;;;;;7.45;0.75;;;;;;;;;;5000709;28;20418;-57
2024/01/05 03:01:33;;;;;;;3.55;1.15;;;;;;;;;;4996888;28;20505;-57
2024/01/05 03:04:01;;;;;;;2.95;0.85;;;;;;;;;;5005909;28;20050;-57
2024/01/05 03:06:27;;;;;;;6.28;0.80;;;;;;;;;;5003690;28;20059;-56
2024/01/05 03:08:53;;;;;;;4.53;0.70;;;;;;;;;;5001376;28;20553;-58
2024/01/05 03:11:20;;;;;;;2.28;0.70;;;;;;;;;;4997589;28;20424;-61
2024/01/05 03:13:46;;;;;;;1.60;1.02;;;;;;;;;;5008432;28;20073;-57
2024/01/05 03:16:12;;;;;;;4.15;0.90;;;;;;;;;;5002469;28;20061;-57
2024/01/05 03:18:38;;;;;;;4.93;1.00;;;;;;;;;;5001684;28;20053;-57
2024/01/05 03:21:04;;;;;;;3.42;0.80;;;;;;;;;;5007227;28;20053;-56
2024/01/05 03:23:30;;;;;;;3.55;0.80;;;;;;;;;;5001385;28;20041;-56
2024/01/05 03:25:59;;;;;;;2.50;0.80;;;;;;;;;;4997283;28;20046;-57
2024/01/05 03:28:25;;;;;;;2.75;0.70;;;;;;;;;;5000945;28;20049;-56
2024/01/05 03:30:51;;;;;;;4.88;1.23;;;;;;;;;;5003044;28;20046;-57
2024/01/05 03:33:20;;;;;;;2.28;0.93;;;;;;;;;;4997303;28;20050;-58
2024/01/05 03:35:46;;;;;;;2.50;1.30;;;;;;;;;;5000656;28;20552;-57
2024/01/05 03:38:12;;;;;;;3.08;0.82;;;;;;;;;;5000035;28;20073;-59
2024/01/05 03:40:38;;;;;;;1.25;0.80;;;;;;;;;;5000143;28;20056;-56
2024/01/05 03:43:04;;;;;;;5.18;0.88;;;;;;;;;;4996847;28;20046;-56
2024/01/05 03:45:30;;;;;;;2.90;0.80;;;;;;;;;;5006316;28;20052;-57
2024/01/05 03:47:56;;;;;;;2.03;0.82;;;;;;;;;;4995595;28;20122;-57
2024/01/05 03:50:22;;;;;;;2.83;0.60;;;;;;;;;;5002160;28;20053;-56
2024/01/05 03:52:48;;;;;;;1.48;0.75;;;;;;;;;;5001695;28;20045;-56
2024/01/05 03:55:14;;;;;;;1.23;0.60;;;;;;;;;;5004155;28;20053;-56
2024/01/05 03:57:40;;;;;;;3.47;1.30;;;;;;;;;;5001696;28;20046;-57
2024/01/05 04:00:07;;;;;;;2.60;0.90;;;;;;;;;;5001525;28;20054;-57
2024/01/05 04:02:33;;;;;;;2.97;1.20;;;;;;;;;;5001578;28;20053;-57
2024/01/05 04:04:59;;;;;;;3.47;1.27;;;;;;;;;;4998920;28;20050;-56
2024/01/05 04:07:25;;;;;;;3.55;1.10;;;;;;;;;;5014905;28;20033;-57
2024/01/05 04:09:51;;;;;;;4.00;1.50;;;;;;;;;;4998963;28;20046;-55
2024/01/05 04:12:17;;;;;;;4.25;1.20;;;;;;;;;;5003176;28;20041;-56
2024/01/05 04:14:45;;;;;;;3.17;1.38;;;;;;;;;;4996073;28;20041;-57
2024/01/05 04:17:11;;;;;;;2.35;0.90;;;;;;;;;;5001453;28;20041;-57
2024/01/05 04:19:37;;;;;;;2.92;1.02;;;;;;;;;;4996499;28;20418;-58
2024/01/05 04:22:06;;;;;;;3.00;0.80;;;;;;;;;;5005731;28;20042;-56
2024/01/05 04:24:33;;;;;;;1.58;0.50;;;;;;;;;;4993613;28;20037;-57
2024/01/05 04:26:59;;;;;;;2.28;0.90;;;;;;;;;;4996734;28;20053;-56
2024/01/05 04:29:25;;;;;;;4.82;0.80;;;;;;;;;;5000784;28;20045;-57
2024/01/05 04:31:52;;;;;;;1.70;0.73;;;;;;;;;;5000233;28;20490;-55
2024/01/05 04:34:18;;;;;;;2.90;1.02;;;;;;;;;;4999073;28;20050;-57
2024/01/05 04:36:44;;;;;;;2.00;0.68;;;;;;;;;;4996722;28;20049;-56
2024/01/05 04:39:10;;;;;;;5.13;0.80;;;;;;;;;;5007960;28;20054;-58
2024/01/05 04:41:37;;;;;;;3.95;0.98;;;;;;;;;;4996164;28;20068;-55
2024/01/05 04:44:03;;;;;;;4.30;0.80;;;;;;;;;;4997861;28;20038;-57
2024/01/05 04:46:29;;;;;;;0.80;0.57;;;;;;;;;;5006547;28;20397;-55
2024/01/05 04:48:56;;;;;;;4.78;0.90;;;;;;;;;;5004316;28;20037;-57
2024/01/05 04:51:22;;;;;;;1.50;0.90;;;;;;;;;;5004131;28;20420;-57
2024/01/05 04:53:49;;;;;;;2.05;0.90;;;;;;;;;;5000455;28;20043;-56
2024/01/05 04:56:16;;;;;;;6.25;1.70;;;;;;;;;;5003357;28;20030;-58
2024/01/05 04:58:42;;;;;;;4.82;2.25;;;;;;;;;;5004204;28;20045;-57
2024/01/05 05:01:08;;;;;;;3.47;1.15;;;;;;;;;;4999583;28;20045;-57
2024/01/05 05:03:35;;;;;;;2.58;1.00;;;;;;;;;;5005949;28;20033;-57
2024/01/05 05:06:01;;;;;;;0.82;0.60;;;;;;;;;;5002617;28;20035;-58
2024/01/05 05:08:28;;;;;;;2.45;0.70;;;;;;;;;;5000936;28;20045;-57
2024/01/05 05:10:54;;;;;;;2.30;0.80;;;;;;;;;;5002391;28;20055;-58
2024/01/05 05:13:20;;;;;;;2.08;1.05;;;;;;;;;;5002107;28;20054;-57
2024/01/05 05:15:46;;;;;;;3.13;1.02;;;;;;;;;;4999541;28;20525;-57
2024/01/05 05:18:12;;;;;;;2.95;0.90;;;;;;;;;;5003121;28;20038;-57
2024/01/05 05:20:38;;;;;;;1.88;0.82;;;;;;;;;;5005409;28;20049;-56
2024/01/05 05:23:04;;;;;;;2.28;0.73;;;;;;;;;;5005616;28;20506;-56
2024/01/05 05:25:31;;;;;;;1.88;0.80;;;;;;;;;;5002254;28;20052;-54
2024/01/05 05:27:58;;;;;;;1.40;0.80;;;;;;;;;;5002441;28;20034;-55
2024/01/05 05:30:24;;;;;;;2.13;1.00;;;;;;;;;;5006343;28;20049;-57
2024/01/05 05:32:50;;;;;;;4.47;0.90;;;;;;;;;;5003013;28;20053;-55
2024/01/05 05:35:16;;;;;;;2.30;0.73;;;;;;;;;;4999301;28;20498;-57
2024/01/05 05:37:42;;;;;;;5.65;1.20;;;;;;;;;;5007234;28;20038;-56
2024/01/05 05:40:09;;;;;;;2.72;0.90;;;;;;;;;;4999443;28;20498;-56
2024/01/05 05:42:35;;;;;;;1.88;1.10;;;;;;;;;;5006682;28;20049;-56
2024/01/05 05:45:01;;;;;;;4.57;0.90;;;;;;;;;;5007580;28;20045;-56
2024/01/05 05:47:27;;;;;;;3.60;1.05;;;;;;;;;;5009122;28;20046;-55
2024/01/05 05:49:53;;;;;;;1.40;0.80;;;;;;;;;;5002934;28;20058;-56
2024/01/05 05:52:19;;;;;;;10.93;1.08;;;;;;;;;;5006842;28;20046;-57
2024/01/05 05:54:46;;;;;;;2.17;0.93;;;;;;;;;;5008421;28;20054;-58
2024/01/05 05:57:12;;;;;;;2.60;0.70;;;;;;;;;;5004163;28;20048;-57
2024/01/05 05:59:38;;;;;;;1.70;0.88;;;;;;;;;;5004392;28;20053;-56
2024/01/05 06:02:04;;;;;;;3.55;0.80;;;;;;;;;;5001417;28;20494;-55
2024/01/05 06:04:30;;;;;;;2.38;0.95;;;;;;;;;;5013019;28;20025;-56
2024/01/05 06:06:57;;;;;;;3.08;0.73;;;;;;;;;;5001464;28;20510;-57
2024/01/05 06:09:23;;;;;;;1.45;0.73;;;;;;;;;;5001835;28;20049;-57
2024/01/05 06:11:49;;;;;;;1.85;1.35;;;;;;;;;;4995917;28;20530;-57
2024/01/05 06:14:15;;;;;;;2.33;0.80;;;;;;;;;;5004635;28;20053;-56
2024/01/05 06:16:41;;;;;;;4.07;1.05;;;;;;;;;;5003179;28;20030;-56
2024/01/05 06:19:09;;;;;;;1.95;0.93;;;;;;;;;;5007734;28;20046;-57
2024/01/05 06:21:35;;;;;;;3.08;0.93;;;;;;;;;;5002862;28;20038;-57
2024/01/05 06:24:01;;;;;;;2.40;1.20;;;;;;;;;;5001246;28;20034;-56
2024/01/05 06:26:27;;;;;;;4.75;1.00;;;;;;;;;;5004763;28;20054;-57
2024/01/05 06:28:53;;;;;;;4.38;0.70;;;;;;;;;;4999725;28;20421;-56
2024/01/05 06:31:20;;;;;;;1.92;1.08;;;;;;;;;;4991831;28;20030;-56
2024/01/05 06:33:46;;;;;;;4.50;1.05;;;;;;;;;;5000278;28;20053;-58
2024/01/05 06:36:12;;;;;;;2.58;0.80;;;;;;;;;;5003900;28;20052;-57
2024/01/05 06:38:38;;;;;;;1.75;0.80;;;;;;;;;;4997707;28;20034;-57
2024/01/05 06:41:05;;;;;;;2.25;1.00;;;;;;;;;;5004473;28;20053;-55
2024/01/05 06:43:31;;;;;;;2.88;0.95;;;;;;;;;;5006310;28;20041;-55
2024/01/05 06:45:57;;;;;;;3.22;1.00;;;;;;;;;;5000965;28;20065;-56
2024/01/05 06:48:23;;;;;;;4.30;1.02;;;;;;;;;;5004142;28;20045;-57
2024/01/05 06:50:49;;;;;;;1.65;0.80;;;;;;;;;;5003511;28;20065;-56
2024/01/05 06:53:15;;;;;;;3.20;0.88;;;;;;;;;;5004887;28;20041;-57
2024/01/05 06:55:42;;;;;;;3.33;0.88;;;;;;;;;;5001616;28;20389;-57
2024/01/05 06:58:08;;;;;;;1.35;0.98;;;;;;;;;;4996934;28;20042;-57
2024/01/05 07:00:36;;;;;;;1.63;0.80;;;;;;;;;;5002452;28;20072;-54
2024/01/05 07:03:03;;;;;;;3.55;1.10;;;;;;;;;;5004040;28;20068;-56
2024/01/05 07:05:30;;;;;;;2.83;1.17;;;;;;;;;;5007372;28;20038;-56
2024/01/05 07:07:56;;;;;;;3.33;1.00;;;;;;;;;;5004720;28;20061;-56
2024/01/05 07:10:23;;;;;;;2.40;1.05;;;;;;;;;;4998981;28;20413;-57
2024/01/05 07:12:49;;;;;;;1.60;0.90;;;;;;;;;;4999910;28;20060;-55
2024/01/05 07:15:15;;;;;;;2.33;1.60;;;;;;;;;;4995999;28;20047;-56
2024/01/05 07:17:49;;;;;;;2.60;1.38;;;;;;;;;;4998939;28;20395;-56
2024/01/05 07:20:15;;;;;;;3.83;1.27;;;;;;;;;;4999967;28;20034;-57
2024/01/05 07:22:41;;;;;;;5.80;1.23;;;;;;;;;;5002194;28;20064;-57
2024/01/05 07:25:11;;;;;;;1.80;1.02;;;;;;;;;;4998523;28;20050;-57
2024/01/05 07:27:37;;;;;;;3.80;1.10;;;;;;;;;;5000181;28;20529;-56
2024/01/05 07:30:04;;;;;;;5.30;1.38;;;;;;;;;;5002903;28;20037;-58
2024/01/05 07:32:48;;;;;;;2.22;1.02;;;;;;;;;;4995146;28;20034;-58
2024/01/05 07:35:14;;;;;;;2.67;1.20;;;;;;;;;;4998341;28;20034;-58
2024/01/05 07:37:40;;;;;;;3.33;1.08;;;;;;;;;;5015490;28;20049;-57
2024/01/05 07:40:07;;;;;;;3.95;1.23;;;;;;;;;;4995819;28;20046;-57
2024/01/05 07:42:33;;;;;;;2.83;1.20;;;;;;;;;;4994243;28;20046;-57
2024/01/05 07:45:00;;;;;;;3.50;1.30;;;;;;;;;;4996066;28;20061;-58
2024/01/05 07:47:26;;;;;;;3.80;1.10;;;;;;;;;;4996990;28;20054;-58
2024/01/05 07:49:52;;;;;;;6.55;2.22;;;;;;;;;;4999662;28;20058;-57
2024/01/05 07:52:18;;;;;;;6.05;2.55;;;;;;;;;;4999637;28;20031;-58
2024/01/05 07:54:44;;;;;;;7.70;2.45;;;;;;;;;;4999583;28;20050;-57
2024/01/05 07:57:10;;;;;;;5.38;2.15;;;;;;;;;;5002577;28;20505;-58
2024/01/05 07:59:36;;;;;;;9.05;3.45;;;;;;;;;;5004924;28;20057;-57
2024/01/05 08:02:03;;;;;;;4.47;2.50;;;;;;;;;;5000753;28;20513;-57
2024/01/05 08:04:30;;;;;;;1.98;1.17;;;;;;;;;;4993236;28;20465;-57
2024/01/05 08:06:56;;;;;;;6.45;1.50;;;;;;;;;;4997045;28;20034;-59
2024/01/05 08:09:22;;;;;;;5.78;1.30;;;;;;;;;;5000057;28;20060;-58
2024/01/05 08:11:48;;;;;;;5.85;1.50;;;;;;;;;;5000070;28;20406;-57
2024/01/05 08:14:15;;;;;;;2.20;1.52;;;;;;;;;;5001417;28;20050;-59
2024/01/05 08:16:41;;;;;;;3.85;1.48;;;;;;;;;;4999915;28;20525;-57
2024/01/05 08:19:07;;;;;;;3.85;1.50;;;;;;;;;;5001790;28;20050;-57
2024/01/05 08:21:33;;;;;;;6.80;1.77;;;;;;;;;;5000363;28;20030;-58
2024/01/05 08:23:59;;;;;;;4.68;1.67;;;;;;;;;;5002929;28;20046;-59
2024/01/05 08:26:25;;;;;;;3.22;1.65;;;;;;;;;;5001902;28;20045;-56
2024/01/05 08:28:51;;;;;;;3.47;1.70;;;;;;;;;;4996989;28;20049;-58
2024/01/05 08:31:18;;;;;;;4.07;1.60;;;;;;;;;;4999951;28;20041;-56
2024/01/05 08:33:44;;;;;;;2.08;1.20;;;;;;;;;;4995080;28;20049;-58
2024/01/05 08:36:10;;;;;;;3.13;1.17;;;;;;;;;;5002798;28;20041;-58
2024/01/05 08:38:36;;;;;;;4.55;1.20;;;;;;;;;;4994230;28;20512;-57
2024/01/05 08:41:02;;;;;;;2.97;0.98;;;;;;;;;;5001341;28;20046;-58
2024/01/05 08:43:28;;;;;;;2.33;1.20;;;;;;;;;;5003670;28;20046;-58
2024/01/05 08:45:54;;;;;;;3.03;1.38;;;;;;;;;;5002881;28;20039;-58
2024/01/05 08:48:20;;;;;;;3.15;1.30;;;;;;;;;;4999673;28;20421;-59
2024/01/05 08:50:46;;;;;;;5.30;2.05;;;;;;;;;;4992516;28;20046;-58
2024/01/05 08:53:12;;;;;;;1.98;1.30;;;;;;;;;;5001118;28;20050;-58
2024/01/05 08:55:39;;;;;;;3.92;1.98;;;;;;;;;;5003207;28;20042;-59
2024/01/05 08:58:05;;;;;;;6.18;2.00;;;;;;;;;;5005807;28;20049;-57
2024/01/05 09:00:31;;;;;;;5.47;1.77;;;;;;;;;;4997165;28;20046;-57
2024/01/05 09:03:00;;;;;;;4.40;1.57;;;;;;;;;;5002178;28;20071;-58
2024/01/05 09:05:26;;;;;;;3.75;1.13;;;;;;;;;;5001572;28;20042;-56
2024/01/05 09:07:53;;;;;;;4.07;1.20;;;;;;;;;;5002027;28;20107;-57
2024/01/05 09:10:20;;;;;;;4.55;1.67;;;;;;;;;;5005794;28;20473;-57
2024/01/05 09:12:46;;;;;;;3.90;1.80;;;;;;;;;;5002165;28;20425;-58
2024/01/05 09:15:12;;;;;;;4.03;1.77;;;;;;;;;;5004891;28;20045;-57
2024/01/05 09:17:42;;;;;;;5.30;1.85;;;;;;;;;;4998026;28;20034;-58
2024/01/05 09:20:08;;;;;;;5.35;1.60;;;;;;;;;;4998733;28;20054;-57
2024/01/05 09:22:36;;;;;;;4.28;1.63;;;;;;;;;;5002056;28;20053;-57
2024/01/05 09:25:02;;;;;;;6.13;1.90;;;;;;;;;;5003065;28;20029;-58
2024/01/05 09:27:30;;;;;;;7.60;2.33;;;;;;;;;;4997515;28;20037;-58
2024/01/05 09:29:56;;;;;;;8.68;3.70;;;;;;;;;;4994601;28;20497;-57
2024/01/05 09:32:22;;;;;;;9.82;4.20;;;;;;;;;;5000300;28;20036;-58
2024/01/05 09:34:48;;;;;;;5.65;2.63;;;;;;;;;;4996895;28;20265;-58
2024/01/05 09:37:14;;;;;;;6.07;2.33;;;;;;;;;;5007594;28;20034;-58
2024/01/05 09:40:00;;;;;;;4.63;2.40;;;;;;;;;;5018053;28;20038;-58
2024/01/05 09:42:50;;;;;;;3.55;1.70;;;;;;;;;;5017234;28;20445;-58
2024/01/05 09:45:38;;;;;;;5.90;2.15;;;;;;;;;;5018196;28;20045;-55
2024/01/05 09:48:24;;;;;;;4.00;1.48;;;;;;;;;;5003919;28;20041;-58
2024/01/05 09:51:10;;;;;;;7.40;1.98;;;;;;;;;;5008532;28;20053;-58
2024/01/05 09:53:57;;;;;;;2.95;1.70;;;;;;;;;;5004242;28;20042;-58
2024/01/05 09:56:47;;;;;;;6.15;1.60;;;;;;;;;;5016803;28;20391;-58
2024/01/05 09:59:34;;;;;;;3.90;1.73;;;;;;;;;;5001658;28;20069;-58
2024/01/05 10:02:32;;;;;;;5.22;1.92;;;;;;;;;;4999039;28;20564;-56
2024/01/05 10:05:18;;;;;;;3.20;1.50;;;;;;;;;;5005499;28;20041;-57
2024/01/05 10:08:04;;;;;;;3.85;1.88;;;;;;;;;;4999198;28;20057;-57
2024/01/05 10:10:55;;;;;;;4.03;1.55;;;;;;;;;;5002289;28;20042;-55
2024/01/05 10:13:53;;;;;;;3.33;1.65;;;;;;;;;;5002300;28;20417;-57
2024/01/05 10:16:39;;;;;;;4.72;2.00;;;;;;;;;;4999933;28;20038;-57
2024/01/05 10:19:25;;;;;;;4.95;1.70;;;;;;;;;;4997767;28;20038;-56
2024/01/05 10:22:13;;;;;;;2.60;1.50;;;;;;;;;;5005930;28;20065;-58
2024/01/05 10:25:13;;;;;;;8.70;2.58;;;;;;;;;;4997155;28;20497;-57
2024/01/05 10:27:59;;;;;;;;;;;;;;;;;;5002110;28;20034;-58
2024/01/05 10:30:45;;;;;;;4.68;1.20;;;;;;;;;;4999218;28;19939;-60
2024/01/05 10:33:31;;;;;;;4.35;1.67;;;;;;;;;;5013028;28;20060;-57
2024/01/05 10:36:21;;;;;;;3.38;1.45;;;;;;;;;;4999981;28;20034;-56
2024/01/05 10:39:08;;;;;;;4.95;1.90;;;;;;;;;;5009199;28;20053;-56
2024/01/05 10:41:55;;;;;;;21.38;10.05;;;;;;;;;;5002745;28;20552;-58
2024/01/05 10:44:45;;;;;;;23.17;11.90;;;;;;;;;;4999796;28;20393;-57
2024/01/05 10:47:31;;;;;;;16.05;9.38;;;;;;;;;;5003916;28;20038;-57
2024/01/05 10:50:18;;;;;;;14.88;8.02;;;;;;;;;;5003158;28;20386;-57
2024/01/05 10:53:08;;;;;;;17.38;7.80;;;;;;;;;;4997241;28;20445;-58
2024/01/05 10:55:57;;;;;;;17.55;9.50;;;;;;;;;;5003048;28;20049;-57
2024/01/05 10:58:43;;;;;;;16.47;7.87;;;;;;;;;;5004766;28;20042;-57
2024/01/05 11:01:31;;;;;;;17.65;8.48;;;;;;;;;;4998776;28;20307;-58
2024/01/05 11:04:21;;;;;;;12.63;6.85;;;;;;;;;;5005398;28;20055;-57
2024/01/05 11:07:09;;;;;;;16.05;7.78;;;;;;;;;;5014939;28;20043;-57
2024/01/05 11:10:26;;;;;;;19.88;11.13;;;;;;;;;;5015818;28;20047;-57
2024/01/05 11:13:17;;;;;;;14.48;9.13;;;;;;;;;;5002172;28;20048;-59
2024/01/05 11:16:07;;;;;;;14.82;8.55;;;;;;;;;;4996689;28;20409;-57
2024/01/05 11:19:21;;;;;;;18.13;9.25;;;;;;;;;;5015629;28;20053;-56
2024/01/05 11:22:12;;;;;;;16.00;7.68;;;;;;;;;;5005049;28;20493;-58
2024/01/05 11:25:00;;;;;;;15.93;7.93;;;;;;;;;;5000693;28;20037;-56
2024/01/05 11:27:46;;;;;;;18.17;7.15;;;;;;;;;;5002689;28;20402;-57
2024/01/05 11:30:44;;;;;;;17.52;7.32;;;;;;;;;;4996801;28;20517;-58
2024/01/05 11:33:48;;;;;;;8.32;4.95;;;;;;;;;;5000813;28;20041;-57
2024/01/05 11:36:49;;;;;;;10.70;5.53;;;;;;;;;;5004805;28;20053;-57
2024/01/05 11:39:48;;;;;;;12.75;5.82;;;;;;;;;;5000452;28;20046;-59
2024/01/05 11:42:34;;;;;;;11.65;6.25;;;;;;;;;;5016357;28;20045;-57
2024/01/05 11:45:45;;;;;;;8.82;5.80;;;;;;;;;;5002225;28;20421;-57
2024/01/05 11:48:34;;;;;;;7.47;4.70;;;;;;;;;;5002019;28;20046;-57
2024/01/05 11:51:20;;;;;;;8.82;4.65;;;;;;;;;;5017233;28;20033;-57
2024/01/05 11:54:06;;;;;;;6.85;4.05;;;;;;;;;;5002227;28;20061;-58
2024/01/05 11:57:00;;;;;;;6.30;3.92;;;;;;;;;;5017271;28;20498;-58
2024/01/05 11:59:54;;;;;;;11.13;4.03;;;;;;;;;;5008741;28;20054;-58
2024/01/05 12:02:40;;;;;;;13.20;5.40;;;;;;;;;;4998815;28;20034;-57
2024/01/05 12:05:26;;;;;;;16.45;6.68;;;;;;;;;;5006752;28;20429;-58
2024/01/05 12:08:13;;;;;;;22.55;7.60;;;;;;;;;;5015845;28;20046;-57
2024/01/05 12:11:03;;;;;;;13.10;5.38;;;;;;;;;;4999318;28;20412;-57
2024/01/05 12:13:49;;;;;;;11.30;5.68;;;;;;;;;;4993527;28;20034;-57
2024/01/05 12:16:35;;;;;;;15.10;4.53;;;;;;;;;;5000641;28;20042;-57
2024/01/05 12:19:21;;;;;;;10.23;4.50;;;;;;;;;;5004819;28;20036;-57
2024/01/05 12:22:08;;;;;;;16.25;10.25;;;;;;;;;;5005455;28;20520;-57
2024/01/05 12:24:54;;;;;;;9.23;5.45;;;;;;;;;;4999138;28;20057;-58
2024/01/05 12:27:40;;;;;;;10.75;5.43;;;;;;;;;;5000302;28;20042;-58
2024/01/05 12:30:27;;;;;;;7.93;5.25;;;;;;;;;;5014926;28;20037;-57
2024/01/05 12:33:13;;;;;;;8.98;5.35;;;;;;;;;;5003543;28;20053;-59
2024/01/05 12:35:59;;;;;;;11.65;5.78;;;;;;;;;;5004039;28;20057;-56
2024/01/05 12:38:45;;;;;;;11.40;5.93;;;;;;;;;;5016486;28;20413;-57
2024/01/05 12:41:31;;;;;;;19.00;8.38;;;;;;;;;;5007163;28;20038;-57
2024/01/05 12:44:19;;;;;;;12.57;6.18;;;;;;;;;;4999895;28;20049;-57
2024/01/05 12:47:05;;;;;;;9.75;5.07;;;;;;;;;;5020056;28;20468;-57
2024/01/05 12:49:51;;;;;;;8.25;5.10;;;;;;;;;;5020491;28;20387;-56
2024/01/05 12:52:38;;;;;;;12.52;5.70;;;;;;;;;;5003488;28;20045;-57
2024/01/05 12:55:31;;;;;;;15.07;6.25;;;;;;;;;;5004562;28;20038;-57
2024/01/05 12:58:18;;;;;;;14.77;6.28;;;;;;;;;;5003627;28;20046;-58
2024/01/05 13:01:05;;;;;;;11.60;5.38;;;;;;;;;;5003287;28;20413;-58
2024/01/05 13:03:51;;;;;;;10.60;6.40;;;;;;;;;;5004193;28;20050;-57
2024/01/05 13:06:38;;;;;;;13.52;6.30;;;;;;;;;;5014135;28;20414;-56
2024/01/05 13:09:24;;;;;;;10.43;5.97;;;;;;;;;;5019457;28;20045;-58
2024/01/05 13:12:10;;;;;;;11.50;6.30;;;;;;;;;;5011951;28;20050;-56
2024/01/05 13:14:56;;;;;;;14.50;8.45;;;;;;;;;;5004301;28;20042;-57
2024/01/05 13:17:47;;;;;;;19.17;9.48;;;;;;;;;;5004770;28;20041;-57
2024/01/05 13:20:33;;;;;;;18.77;9.88;;;;;;;;;;5008189;28;20048;-57
2024/01/05 13:23:19;;;;;;;14.68;8.25;;;;;;;;;;5001215;28;20041;-58
2024/01/05 13:26:05;;;;;;;14.13;7.13;;;;;;;;;;5005088;28;20042;-57
2024/01/05 13:28:51;;;;;;;10.88;5.22;;;;;;;;;;5015351;28;20038;-57
2024/01/05 13:31:37;;;;;;;10.27;4.40;;;;;;;;;;4999941;28;20096;-57
2024/01/05 13:34:23;;;;;;;6.78;3.35;;;;;;;;;;4989675;28;20096;-58
2024/01/05 13:37:10;;;;;;;5.97;2.25;;;;;;;;;;4995247;28;20050;-56
2024/01/05 13:39:56;;;;;;;6.18;3.60;;;;;;;;;;5003510;28;20046;-56
2024/01/05 13:42:41;;;;;;;5.22;3.60;;;;;;;;;;5020584;28;20057;-56
2024/01/05 13:45:28;;;;;;;5.32;2.80;;;;;;;;;;5017658;28;20034;-57
2024/01/05 13:48:14;;;;;;;6.68;3.55;;;;;;;;;;5002299;28;20057;-56
2024/01/05 13:51:00;;;;;;;4.45;2.92;;;;;;;;;;5006979;28;20077;-55
2024/01/05 13:53:46;;;;;;;4.43;2.15;;;;;;;;;;4999271;28;20676;-54
2024/01/05 13:56:33;;;;;;;4.95;2.65;;;;;;;;;;5005595;28;20045;-52
2024/01/05 13:59:19;;;;;;;5.43;2.55;;;;;;;;;;5013549;28;20045;-57
2024/01/05 14:02:06;;;;;;;9.23;3.60;;;;;;;;;;5006599;28;20061;-57
2024/01/05 14:04:52;;;;;;;8.13;4.05;;;;;;;;;;5019254;28;20405;-58
2024/01/05 14:07:38;;;;;;;11.50;4.60;;;;;;;;;;4999929;28;20513;-58
2024/01/05 14:10:24;;;;;;;10.45;5.40;;;;;;;;;;5016851;28;20034;-58
2024/01/05 14:13:10;;;;;;;7.68;4.15;;;;;;;;;;5009285;28;20046;-59
2024/01/05 14:15:56;;;;;;;10.45;4.50;;;;;;;;;;5003347;28;20046;-58
2024/01/05 14:18:42;;;;;;;14.73;6.05;;;;;;;;;;5004643;28;20041;-58
2024/01/05 14:21:28;;;;;;;11.02;5.65;;;;;;;;;;5019617;28;20034;-58
2024/01/05 14:24:14;;;;;;;11.63;5.25;;;;;;;;;;5014701;28;20042;-57
2024/01/05 14:27:01;;;;;;;11.20;5.10;;;;;;;;;;4998885;28;20418;-57
2024/01/05 14:29:47;;;;;;;12.13;5.75;;;;;;;;;;5001821;28;20057;-57
2024/01/05 14:32:33;;;;;;;12.80;5.55;;;;;;;;;;5017379;28;20040;-57
2024/01/05 14:35:20;;;;;;;10.82;5.40;;;;;;;;;;5001331;28;20073;-57
2024/01/05 14:38:06;;;;;;;11.90;5.68;;;;;;;;;;4998274;28;20040;-57
2024/01/05 14:40:53;;;;;;;11.23;5.68;;;;;;;;;;5008366;28;20049;-58
2024/01/05 14:43:39;;;;;;;15.05;7.00;;;;;;;;;;5002129;28;20037;-58
2024/01/05 14:46:25;;;;;;;9.32;5.78;;;;;;;;;;4996749;28;20518;-59
2024/01/05 14:49:11;;;;;;;9.27;4.90;;;;;;;;;;5015163;28;20031;-57
2024/01/05 14:51:59;;;;;;;18.70;7.72;;;;;;;;;;5004349;28;20050;-57
2024/01/05 14:54:45;;;;;;;15.70;7.18;;;;;;;;;;5000850;28;20163;-57
2024/01/05 14:57:31;;;;;;;10.68;4.97;;;;;;;;;;5004969;28;20042;-57
2024/01/05 15:00:19;;;;;;;8.50;4.57;;;;;;;;;;5006630;28;20044;-57
2024/01/05 15:03:05;;;;;;;17.58;6.20;;;;;;;;;;4997241;28;20038;-57
2024/01/05 15:05:51;;;;;;;19.60;9.63;;;;;;;;;;5010674;28;20482;-58
2024/01/05 15:08:37;;;;;;;12.73;6.00;;;;;;;;;;4999850;28;20045;-58
2024/01/05 15:11:23;;;;;;;14.93;5.70;;;;;;;;;;5008291;28;20030;-57
2024/01/05 15:14:09;;;;;;;11.05;5.85;;;;;;;;;;5002875;28;20050;-56
2024/01/05 15:16:55;;;;;;;8.88;4.75;;;;;;;;;;4997099;28;20045;-57
2024/01/05 15:19:41;;;;;;;10.30;4.70;;;;;;;;;;5000113;28;20483;-57